sensor_id;sensor_type;location;lat;lon;timestamp;P1;durP1;ratioP1;P2;durP2;ratioP2
63778;SDS011;49923;55.970;37.516;2022-08-03T00:01:57;23.38;;;16.83;;
63778;SDS011;49923;55.970;37.516;2022-08-03T00:04:24;25.17;;;17.25;;
63778;SDS011;49923;55.970;37.516;2022-08-03T00:06:50;23.73;;;17.23;;
63778;SDS011;49923;55.970;37.516;2022-08-03T00:09:16;23.98;;;16.75;;
63778;SDS011;49923;55.970;37.516;2022-08-03T00:11:42;24.30;;;17.13;;
63778;SDS011;49923;55.970;37.516;2022-08-03T00:14:08;25.88;;;17.88;;
63778;SDS011;49923;55.970;37.516;2022-08-03T00:16:34;24.00;;;17.33;;
63778;SDS011;49923;55.970;37.516;2022-08-03T00:19:00;25.05;;;17.67;;
63778;SDS011;49923;55.970;37.516;2022-08-03T00:21:26;20.98;;;16.85;;
63778;SDS011;49923;55.970;37.516;2022-08-03T00:23:53;26.38;;;17.10;;
63778;SDS011;49923;55.970;37.516;2022-08-03T00:26:19;20.05;;;16.77;;
63778;SDS011;49923;55.970;37.516;2022-08-03T00:28:45;21.20;;;17.25;;
63778;SDS011;49923;55.970;37.516;2022-08-03T00:31:11;19.40;;;16.67;;
63778;SDS011;49923;55.970;37.516;2022-08-03T00:33:37;18.05;;;16.17;;
63778;SDS011;49923;55.970;37.516;2022-08-03T00:36:03;20.42;;;15.70;;
63778;SDS011;49923;55.970;37.516;2022-08-03T00:38:29;19.77;;;16.55;;
63778;SDS011;49923;55.970;37.516;2022-08-03T00:40:55;22.70;;;17.02;;
63778;SDS011;49923;55.970;37.516;2022-08-03T00:43:23;22.90;;;16.40;;
63778;SDS011;49923;55.970;37.516;2022-08-03T00:45:51;25.08;;;17.55;;
63778;SDS011;49923;55.970;37.516;2022-08-03T00:48:19;22.55;;;16.70;;
63778;SDS011;49923;55.970;37.516;2022-08-03T00:50:45;20.88;;;16.80;;
63778;SDS011;49923;55.970;37.516;2022-08-03T00:53:12;19.83;;;16.02;;
63778;SDS011;49923;55.970;37.516;2022-08-03T00:55:39;22.67;;;16.92;;
63778;SDS011;49923;55.970;37.516;2022-08-03T00:58:06;21.88;;;16.85;;
63778;SDS011;49923;55.970;37.516;2022-08-03T01:00:34;23.95;;;17.60;;
63778;SDS011;49923;55.970;37.516;2022-08-03T01:03:03;23.55;;;17.35;;
63778;SDS011;49923;55.970;37.516;2022-08-03T01:05:38;21.85;;;16.95;;
63778;SDS011;49923;55.970;37.516;2022-08-03T01:11:18;20.92;;;17.35;;
63778;SDS011;49923;55.970;37.516;2022-08-03T01:14:12;22.33;;;17.02;;
63778;SDS011;49923;55.970;37.516;2022-08-03T01:16:56;21.42;;;18.02;;
63778;SDS011;49923;55.970;37.516;2022-08-03T01:19:33;24.38;;;17.58;;
63778;SDS011;49923;55.970;37.516;2022-08-03T01:30:47;19.73;;;16.40;;
63778;SDS011;49923;55.970;37.516;2022-08-03T01:33:19;21.88;;;17.17;;
63778;SDS011;49923;55.970;37.516;2022-08-03T01:36:08;20.40;;;16.05;;
63778;SDS011;49923;55.970;37.516;2022-08-03T01:38:42;23.50;;;16.30;;
63778;SDS011;49923;55.970;37.516;2022-08-03T01:41:11;22.13;;;15.80;;
63778;SDS011;49923;55.970;37.516;2022-08-03T01:43:43;21.60;;;16.67;;
63778;SDS011;49923;55.970;37.516;2022-08-03T01:46:14;22.02;;;16.73;;
63778;SDS011;49923;55.970;37.516;2022-08-03T01:48:42;26.35;;;16.88;;
63778;SDS011;49923;55.970;37.516;2022-08-03T01:51:10;21.55;;;16.30;;
63778;SDS011;49923;55.970;37.516;2022-08-03T01:53:38;20.38;;;17.45;;
63778;SDS011;49923;55.970;37.516;2022-08-03T01:56:08;23.85;;;16.67;;
63778;SDS011;49923;55.970;37.516;2022-08-03T01:58:35;24.60;;;17.13;;
63778;SDS011;49923;55.970;37.516;2022-08-03T02:01:02;18.88;;;16.88;;
63778;SDS011;49923;55.970;37.516;2022-08-03T02:03:29;19.40;;;17.27;;
63778;SDS011;49923;55.970;37.516;2022-08-03T02:05:59;22.38;;;16.80;;
63778;SDS011;49923;55.970;37.516;2022-08-03T02:08:27;19.98;;;16.95;;
63778;SDS011;49923;55.970;37.516;2022-08-03T02:10:55;23.77;;;17.08;;
63778;SDS011;49923;55.970;37.516;2022-08-03T02:13:23;22.42;;;17.42;;
63778;SDS011;49923;55.970;37.516;2022-08-03T02:15:52;27.08;;;17.55;;
63778;SDS011;49923;55.970;37.516;2022-08-03T02:18:19;22.33;;;16.98;;
63778;SDS011;49923;55.970;37.516;2022-08-03T02:20:46;24.92;;;18.17;;
63778;SDS011;49923;55.970;37.516;2022-08-03T02:23:14;26.92;;;18.27;;
63778;SDS011;49923;55.970;37.516;2022-08-03T02:25:42;22.95;;;17.77;;
63778;SDS011;49923;55.970;37.516;2022-08-03T02:28:11;22.60;;;18.05;;
63778;SDS011;49923;55.970;37.516;2022-08-03T02:30:43;29.92;;;18.65;;
63778;SDS011;49923;55.970;37.516;2022-08-03T02:33:13;23.60;;;17.80;;
63778;SDS011;49923;55.970;37.516;2022-08-03T02:35:44;20.33;;;18.03;;
63778;SDS011;49923;55.970;37.516;2022-08-03T02:38:13;26.38;;;18.70;;
63778;SDS011;49923;55.970;37.516;2022-08-03T02:40:42;23.55;;;18.02;;
63778;SDS011;49923;55.970;37.516;2022-08-03T02:43:10;23.55;;;17.42;;
63778;SDS011;49923;55.970;37.516;2022-08-03T02:45:43;28.63;;;18.55;;
63778;SDS011;49923;55.970;37.516;2022-08-03T02:48:15;25.58;;;18.88;;
63778;SDS011;49923;55.970;37.516;2022-08-03T02:50:43;23.52;;;17.73;;
63778;SDS011;49923;55.970;37.516;2022-08-03T02:53:10;26.30;;;17.92;;
63778;SDS011;49923;55.970;37.516;2022-08-03T02:55:38;25.20;;;17.77;;
63778;SDS011;49923;55.970;37.516;2022-08-03T02:58:06;27.70;;;18.02;;
63778;SDS011;49923;55.970;37.516;2022-08-03T03:00:32;26.50;;;18.45;;
63778;SDS011;49923;55.970;37.516;2022-08-03T03:03:00;23.13;;;17.77;;
63778;SDS011;49923;55.970;37.516;2022-08-03T03:05:29;22.30;;;18.05;;
63778;SDS011;49923;55.970;37.516;2022-08-03T03:07:55;22.05;;;17.17;;
63778;SDS011;49923;55.970;37.516;2022-08-03T03:10:22;27.85;;;18.70;;
63778;SDS011;49923;55.970;37.516;2022-08-03T03:12:51;22.33;;;18.52;;
63778;SDS011;49923;55.970;37.516;2022-08-03T03:15:20;22.40;;;18.48;;
63778;SDS011;49923;55.970;37.516;2022-08-03T03:17:48;25.73;;;19.77;;
63778;SDS011;49923;55.970;37.516;2022-08-03T03:20:15;30.08;;;18.48;;
63778;SDS011;49923;55.970;37.516;2022-08-03T03:22:42;106.30;;;21.95;;
63778;SDS011;49923;55.970;37.516;2022-08-03T03:25:11;25.90;;;19.42;;
63778;SDS011;49923;55.970;37.516;2022-08-03T03:27:37;21.70;;;18.73;;
63778;SDS011;49923;55.970;37.516;2022-08-03T03:30:04;26.00;;;18.25;;
63778;SDS011;49923;55.970;37.516;2022-08-03T03:32:30;22.20;;;17.60;;
63778;SDS011;49923;55.970;37.516;2022-08-03T03:34:57;20.42;;;18.20;;
63778;SDS011;49923;55.970;37.516;2022-08-03T03:37:25;29.83;;;18.50;;
63778;SDS011;49923;55.970;37.516;2022-08-03T03:39:52;23.92;;;18.67;;
63778;SDS011;49923;55.970;37.516;2022-08-03T03:42:21;21.55;;;18.00;;
63778;SDS011;49923;55.970;37.516;2022-08-03T03:44:47;23.83;;;18.30;;
63778;SDS011;49923;55.970;37.516;2022-08-03T03:47:13;20.42;;;18.17;;
63778;SDS011;49923;55.970;37.516;2022-08-03T03:49:39;26.13;;;19.88;;
63778;SDS011;49923;55.970;37.516;2022-08-03T03:52:07;23.77;;;18.67;;
63778;SDS011;49923;55.970;37.516;2022-08-03T03:54:39;22.02;;;18.08;;
63778;SDS011;49923;55.970;37.516;2022-08-03T03:57:06;21.88;;;17.85;;
63778;SDS011;49923;55.970;37.516;2022-08-03T03:59:32;22.27;;;18.15;;
63778;SDS011;49923;55.970;37.516;2022-08-03T04:01:58;20.65;;;17.08;;
63778;SDS011;49923;55.970;37.516;2022-08-03T04:04:24;23.85;;;17.75;;
63778;SDS011;49923;55.970;37.516;2022-08-03T04:07:08;24.70;;;17.17;;
63778;SDS011;49923;55.970;37.516;2022-08-03T04:09:53;24.58;;;17.98;;
63778;SDS011;49923;55.970;37.516;2022-08-03T04:12:38;21.60;;;16.90;;
63778;SDS011;49923;55.970;37.516;2022-08-03T04:15:05;26.30;;;20.60;;
63778;SDS011;49923;55.970;37.516;2022-08-03T04:17:32;21.60;;;17.90;;
63778;SDS011;49923;55.970;37.516;2022-08-03T04:19:58;28.08;;;18.55;;
63778;SDS011;49923;55.970;37.516;2022-08-03T04:22:26;20.60;;;17.75;;
63778;SDS011;49923;55.970;37.516;2022-08-03T04:24:59;24.15;;;17.70;;
63778;SDS011;49923;55.970;37.516;2022-08-03T04:27:32;21.83;;;17.45;;
63778;SDS011;49923;55.970;37.516;2022-08-03T04:30:02;26.02;;;17.45;;
63778;SDS011;49923;55.970;37.516;2022-08-03T04:32:30;20.52;;;17.70;;
63778;SDS011;49923;55.970;37.516;2022-08-03T04:34:56;20.65;;;17.73;;
63778;SDS011;49923;55.970;37.516;2022-08-03T04:37:30;22.95;;;17.13;;
63778;SDS011;49923;55.970;37.516;2022-08-03T04:40:03;20.23;;;17.70;;
63778;SDS011;49923;55.970;37.516;2022-08-03T04:42:32;20.67;;;17.38;;
63778;SDS011;49923;55.970;37.516;2022-08-03T04:44:59;49.70;;;37.72;;
63778;SDS011;49923;55.970;37.516;2022-08-03T04:47:28;23.85;;;18.70;;
63778;SDS011;49923;55.970;37.516;2022-08-03T04:49:59;21.05;;;16.42;;
63778;SDS011;49923;55.970;37.516;2022-08-03T04:52:26;20.98;;;16.77;;
63778;SDS011;49923;55.970;37.516;2022-08-03T04:54:52;19.48;;;15.98;;
63778;SDS011;49923;55.970;37.516;2022-08-03T04:57:19;21.25;;;16.38;;
63778;SDS011;49923;55.970;37.516;2022-08-03T04:59:45;24.90;;;16.85;;
63778;SDS011;49923;55.970;37.516;2022-08-03T05:02:13;22.48;;;17.27;;
63778;SDS011;49923;55.970;37.516;2022-08-03T05:04:40;23.83;;;17.83;;
63778;SDS011;49923;55.970;37.516;2022-08-03T05:07:11;23.73;;;17.40;;
63778;SDS011;49923;55.970;37.516;2022-08-03T05:09:37;21.00;;;17.95;;
63778;SDS011;49923;55.970;37.516;2022-08-03T05:12:04;25.00;;;17.70;;
63778;SDS011;49923;55.970;37.516;2022-08-03T05:14:34;21.25;;;18.30;;
63778;SDS011;49923;55.970;37.516;2022-08-03T05:17:03;22.23;;;17.27;;
63778;SDS011;49923;55.970;37.516;2022-08-03T05:19:29;23.98;;;17.15;;
63778;SDS011;49923;55.970;37.516;2022-08-03T05:21:55;22.13;;;17.42;;
63778;SDS011;49923;55.970;37.516;2022-08-03T05:24:21;24.30;;;17.70;;
63778;SDS011;49923;55.970;37.516;2022-08-03T05:26:47;24.27;;;17.35;;
63778;SDS011;49923;55.970;37.516;2022-08-03T05:29:13;21.67;;;17.77;;
63778;SDS011;49923;55.970;37.516;2022-08-03T05:31:39;24.25;;;17.83;;
63778;SDS011;49923;55.970;37.516;2022-08-03T05:34:05;23.95;;;17.52;;
63778;SDS011;49923;55.970;37.516;2022-08-03T05:36:31;68.15;;;52.25;;
63778;SDS011;49923;55.970;37.516;2022-08-03T05:38:57;21.67;;;17.80;;
63778;SDS011;49923;55.970;37.516;2022-08-03T05:41:23;20.42;;;16.88;;
63778;SDS011;49923;55.970;37.516;2022-08-03T05:43:49;22.35;;;16.77;;
63778;SDS011;49923;55.970;37.516;2022-08-03T05:46:19;19.73;;;17.45;;
63778;SDS011;49923;55.970;37.516;2022-08-03T05:48:45;25.05;;;16.95;;
63778;SDS011;49923;55.970;37.516;2022-08-03T05:51:11;21.35;;;16.63;;
63778;SDS011;49923;55.970;37.516;2022-08-03T05:53:41;23.77;;;16.17;;
63778;SDS011;49923;55.970;37.516;2022-08-03T05:56:07;26.23;;;16.80;;
63778;SDS011;49923;55.970;37.516;2022-08-03T05:58:33;21.17;;;16.10;;
63778;SDS011;49923;55.970;37.516;2022-08-03T06:00:59;22.63;;;15.02;;
63778;SDS011;49923;55.970;37.516;2022-08-03T06:03:25;20.08;;;16.15;;
63778;SDS011;49923;55.970;37.516;2022-08-03T06:05:52;19.83;;;13.60;;
63778;SDS011;49923;55.970;37.516;2022-08-03T06:08:20;17.08;;;13.98;;
63778;SDS011;49923;55.970;37.516;2022-08-03T06:10:45;19.38;;;13.88;;
63778;SDS011;49923;55.970;37.516;2022-08-03T06:13:11;21.10;;;13.15;;
63778;SDS011;49923;55.970;37.516;2022-08-03T06:15:37;15.40;;;12.57;;
63778;SDS011;49923;55.970;37.516;2022-08-03T06:18:03;15.10;;;12.90;;
63778;SDS011;49923;55.970;37.516;2022-08-03T06:20:29;15.77;;;12.80;;
63778;SDS011;49923;55.970;37.516;2022-08-03T06:22:55;16.23;;;12.40;;
63778;SDS011;49923;55.970;37.516;2022-08-03T06:25:22;15.73;;;12.50;;
63778;SDS011;49923;55.970;37.516;2022-08-03T06:27:47;17.35;;;12.43;;
63778;SDS011;49923;55.970;37.516;2022-08-03T06:30:13;14.40;;;10.82;;
63778;SDS011;49923;55.970;37.516;2022-08-03T06:32:41;15.77;;;11.93;;
63778;SDS011;49923;55.970;37.516;2022-08-03T06:35:07;12.63;;;10.13;;
63778;SDS011;49923;55.970;37.516;2022-08-03T06:37:49;12.35;;;10.82;;
63778;SDS011;49923;55.970;37.516;2022-08-03T06:40:17;14.55;;;10.43;;
63778;SDS011;49923;55.970;37.516;2022-08-03T06:42:45;11.98;;;10.27;;
63778;SDS011;49923;55.970;37.516;2022-08-03T06:45:11;17.40;;;11.43;;
63778;SDS011;49923;55.970;37.516;2022-08-03T06:47:37;15.50;;;11.65;;
63778;SDS011;49923;55.970;37.516;2022-08-03T06:50:05;15.05;;;11.20;;
63778;SDS011;49923;55.970;37.516;2022-08-03T06:52:32;17.20;;;13.27;;
63778;SDS011;49923;55.970;37.516;2022-08-03T06:54:58;13.38;;;10.18;;
63778;SDS011;49923;55.970;37.516;2022-08-03T06:57:24;13.88;;;10.02;;
63778;SDS011;49923;55.970;37.516;2022-08-03T06:59:50;12.02;;;10.65;;
63778;SDS011;49923;55.970;37.516;2022-08-03T07:02:16;16.23;;;10.18;;
63778;SDS011;49923;55.970;37.516;2022-08-03T07:04:46;10.95;;;9.63;;
63778;SDS011;49923;55.970;37.516;2022-08-03T07:07:12;14.20;;;9.85;;
63778;SDS011;49923;55.970;37.516;2022-08-03T07:09:38;13.73;;;9.73;;
63778;SDS011;49923;55.970;37.516;2022-08-03T07:12:04;14.50;;;9.82;;
63778;SDS011;49923;55.970;37.516;2022-08-03T07:14:31;14.43;;;9.93;;
63778;SDS011;49923;55.970;37.516;2022-08-03T07:16:57;33.50;;;28.90;;
63778;SDS011;49923;55.970;37.516;2022-08-03T07:19:23;14.15;;;11.93;;
63778;SDS011;49923;55.970;37.516;2022-08-03T07:21:48;12.48;;;10.38;;
63778;SDS011;49923;55.970;37.516;2022-08-03T07:24:14;11.07;;;9.40;;
63778;SDS011;49923;55.970;37.516;2022-08-03T07:26:40;11.40;;;9.40;;
63778;SDS011;49923;55.970;37.516;2022-08-03T07:29:06;10.75;;;8.73;;
63778;SDS011;49923;55.970;37.516;2022-08-03T07:31:32;12.82;;;8.68;;
63778;SDS011;49923;55.970;37.516;2022-08-03T07:33:58;12.30;;;8.70;;
63778;SDS011;49923;55.970;37.516;2022-08-03T07:36:24;8.93;;;7.80;;
63778;SDS011;49923;55.970;37.516;2022-08-03T07:38:51;11.00;;;7.32;;
63778;SDS011;49923;55.970;37.516;2022-08-03T07:41:17;34.65;;;9.00;;
63778;SDS011;49923;55.970;37.516;2022-08-03T07:43:43;12.35;;;7.35;;
63778;SDS011;49923;55.970;37.516;2022-08-03T07:46:08;13.93;;;7.10;;
63778;SDS011;49923;55.970;37.516;2022-08-03T07:48:34;10.75;;;6.60;;
63778;SDS011;49923;55.970;37.516;2022-08-03T07:51:00;8.23;;;6.22;;
63778;SDS011;49923;55.970;37.516;2022-08-03T07:53:27;8.27;;;6.97;;
63778;SDS011;49923;55.970;37.516;2022-08-03T07:55:53;9.27;;;7.20;;
63778;SDS011;49923;55.970;37.516;2022-08-03T07:58:19;13.95;;;8.88;;
63778;SDS011;49923;55.970;37.516;2022-08-03T08:00:47;12.60;;;7.78;;
63778;SDS011;49923;55.970;37.516;2022-08-03T08:03:13;11.20;;;7.55;;
63778;SDS011;49923;55.970;37.516;2022-08-03T08:05:39;13.88;;;7.90;;
63778;SDS011;49923;55.970;37.516;2022-08-03T08:08:05;9.27;;;8.02;;
63778;SDS011;49923;55.970;37.516;2022-08-03T08:10:31;11.48;;;8.10;;
63778;SDS011;49923;55.970;37.516;2022-08-03T08:12:58;10.48;;;7.88;;
63778;SDS011;49923;55.970;37.516;2022-08-03T08:15:24;11.40;;;7.90;;
63778;SDS011;49923;55.970;37.516;2022-08-03T08:17:51;45.45;;;29.73;;
63778;SDS011;49923;55.970;37.516;2022-08-03T08:20:26;12.25;;;8.13;;
63778;SDS011;49923;55.970;37.516;2022-08-03T08:23:04;14.95;;;8.05;;
63778;SDS011;49923;55.970;37.516;2022-08-03T08:25:31;14.45;;;8.55;;
63778;SDS011;49923;55.970;37.516;2022-08-03T08:27:57;10.05;;;8.25;;
63778;SDS011;49923;55.970;37.516;2022-08-03T08:30:28;13.25;;;8.75;;
63778;SDS011;49923;55.970;37.516;2022-08-03T08:32:54;11.60;;;8.77;;
63778;SDS011;49923;55.970;37.516;2022-08-03T08:35:22;10.43;;;8.80;;
63778;SDS011;49923;55.970;37.516;2022-08-03T08:37:48;12.77;;;8.38;;
63778;SDS011;49923;55.970;37.516;2022-08-03T08:40:14;11.10;;;8.00;;
63778;SDS011;49923;55.970;37.516;2022-08-03T08:42:40;12.05;;;8.32;;
63778;SDS011;49923;55.970;37.516;2022-08-03T08:45:08;15.57;;;9.00;;
63778;SDS011;49923;55.970;37.516;2022-08-03T08:47:37;13.60;;;8.25;;
63778;SDS011;49923;55.970;37.516;2022-08-03T08:50:05;10.30;;;8.13;;
63778;SDS011;49923;55.970;37.516;2022-08-03T08:52:39;9.73;;;8.15;;
63778;SDS011;49923;55.970;37.516;2022-08-03T08:55:09;11.63;;;7.78;;
63778;SDS011;49923;55.970;37.516;2022-08-03T08:57:43;14.60;;;8.23;;
63778;SDS011;49923;55.970;37.516;2022-08-03T09:00:12;11.48;;;8.43;;
63778;SDS011;49923;55.970;37.516;2022-08-03T09:02:40;11.68;;;9.02;;
63778;SDS011;49923;55.970;37.516;2022-08-03T09:05:10;10.80;;;7.95;;
63778;SDS011;49923;55.970;37.516;2022-08-03T09:07:38;11.38;;;8.15;;
63778;SDS011;49923;55.970;37.516;2022-08-03T09:10:08;10.82;;;7.72;;
63778;SDS011;49923;55.970;37.516;2022-08-03T09:12:36;12.73;;;8.15;;
63778;SDS011;49923;55.970;37.516;2022-08-03T09:15:23;11.20;;;7.85;;
63778;SDS011;49923;55.970;37.516;2022-08-03T09:17:53;13.13;;;8.20;;
63778;SDS011;49923;55.970;37.516;2022-08-03T09:20:22;12.88;;;7.97;;
63778;SDS011;49923;55.970;37.516;2022-08-03T09:25:25;35.28;;;31.42;;
63778;SDS011;49923;55.970;37.516;2022-08-03T09:28:05;14.70;;;11.65;;
63778;SDS011;49923;55.970;37.516;2022-08-03T09:30:33;11.05;;;7.80;;
63778;SDS011;49923;55.970;37.516;2022-08-03T09:33:00;13.35;;;7.82;;
63778;SDS011;49923;55.970;37.516;2022-08-03T09:35:38;10.25;;;7.70;;
63778;SDS011;49923;55.970;37.516;2022-08-03T09:38:13;11.02;;;7.90;;
63778;SDS011;49923;55.970;37.516;2022-08-03T09:40:43;9.77;;;7.28;;
63778;SDS011;49923;55.970;37.516;2022-08-03T09:43:10;11.50;;;6.72;;
63778;SDS011;49923;55.970;37.516;2022-08-03T09:45:37;11.10;;;7.25;;
63778;SDS011;49923;55.970;37.516;2022-08-03T09:50:51;12.32;;;7.88;;
63778;SDS011;49923;55.970;37.516;2022-08-03T09:53:21;10.82;;;7.45;;
63778;SDS011;49923;55.970;37.516;2022-08-03T09:55:58;11.05;;;7.43;;
63778;SDS011;49923;55.970;37.516;2022-08-03T09:58:29;9.68;;;7.80;;
63778;SDS011;49923;55.970;37.516;2022-08-03T10:00:57;10.57;;;7.78;;
63778;SDS011;49923;55.970;37.516;2022-08-03T10:03:31;10.57;;;7.82;;
63778;SDS011;49923;55.970;37.516;2022-08-03T10:05:59;13.80;;;7.97;;
63778;SDS011;49923;55.970;37.516;2022-08-03T10:08:41;10.13;;;7.68;;
63778;SDS011;49923;55.970;37.516;2022-08-03T10:11:06;11.75;;;8.13;;
63778;SDS011;49923;55.970;37.516;2022-08-03T10:13:32;8.85;;;7.55;;
63778;SDS011;49923;55.970;37.516;2022-08-03T10:15:59;10.85;;;8.00;;
63778;SDS011;49923;55.970;37.516;2022-08-03T10:18:25;12.18;;;8.25;;
63778;SDS011;49923;55.970;37.516;2022-08-03T10:20:51;8.40;;;7.43;;
63778;SDS011;49923;55.970;37.516;2022-08-03T10:23:18;9.57;;;7.68;;
63778;SDS011;49923;55.970;37.516;2022-08-03T10:25:46;10.68;;;7.65;;
63778;SDS011;49923;55.970;37.516;2022-08-03T10:28:17;13.80;;;10.65;;
63778;SDS011;49923;55.970;37.516;2022-08-03T10:30:46;10.00;;;7.65;;
63778;SDS011;49923;55.970;37.516;2022-08-03T10:33:19;13.25;;;8.15;;
63778;SDS011;49923;55.970;37.516;2022-08-03T10:35:49;14.25;;;7.63;;
63778;SDS011;49923;55.970;37.516;2022-08-03T10:38:21;8.60;;;7.47;;
63778;SDS011;49923;55.970;37.516;2022-08-03T10:40:54;9.88;;;7.90;;
63778;SDS011;49923;55.970;37.516;2022-08-03T10:43:30;10.15;;;7.70;;
63778;SDS011;49923;55.970;37.516;2022-08-03T10:46:06;13.90;;;8.05;;
63778;SDS011;49923;55.970;37.516;2022-08-03T10:48:32;9.80;;;7.60;;
63778;SDS011;49923;55.970;37.516;2022-08-03T10:51:00;11.50;;;8.10;;
63778;SDS011;49923;55.970;37.516;2022-08-03T10:53:37;10.90;;;8.05;;
63778;SDS011;49923;55.970;37.516;2022-08-03T10:59:17;10.15;;;7.78;;
63778;SDS011;49923;55.970;37.516;2022-08-03T11:04:18;10.27;;;7.50;;
63778;SDS011;49923;55.970;37.516;2022-08-03T11:06:45;10.40;;;7.75;;
63778;SDS011;49923;55.970;37.516;2022-08-03T11:09:13;8.80;;;7.90;;
63778;SDS011;49923;55.970;37.516;2022-08-03T11:11:41;10.32;;;8.35;;
63778;SDS011;49923;55.970;37.516;2022-08-03T11:14:10;15.15;;;8.85;;
63778;SDS011;49923;55.970;37.516;2022-08-03T11:16:39;9.88;;;7.57;;
63778;SDS011;49923;55.970;37.516;2022-08-03T11:19:08;12.18;;;7.90;;
63778;SDS011;49923;55.970;37.516;2022-08-03T11:27:25;11.70;;;8.25;;
63778;SDS011;49923;55.970;37.516;2022-08-03T11:30:06;9.13;;;8.23;;
63778;SDS011;49923;55.970;37.516;2022-08-03T11:43:09;9.65;;;8.02;;
63778;SDS011;49923;55.970;37.516;2022-08-03T11:48:24;9.73;;;7.57;;
63778;SDS011;49923;55.970;37.516;2022-08-03T11:50:53;12.30;;;7.47;;
63778;SDS011;49923;55.970;37.516;2022-08-03T11:53:19;10.98;;;8.40;;
63778;SDS011;49923;55.970;37.516;2022-08-03T11:55:46;11.63;;;8.85;;
63778;SDS011;49923;55.970;37.516;2022-08-03T11:58:18;9.68;;;7.80;;
63778;SDS011;49923;55.970;37.516;2022-08-03T12:00:46;10.60;;;7.50;;
63778;SDS011;49923;55.970;37.516;2022-08-03T12:03:13;15.65;;;8.35;;
63778;SDS011;49923;55.970;37.516;2022-08-03T12:05:50;13.73;;;8.77;;
63778;SDS011;49923;55.970;37.516;2022-08-03T12:10:53;11.80;;;8.18;;
63778;SDS011;49923;55.970;37.516;2022-08-03T12:13:21;13.32;;;7.85;;
63778;SDS011;49923;55.970;37.516;2022-08-03T12:15:54;10.95;;;7.50;;
63778;SDS011;49923;55.970;37.516;2022-08-03T12:18:21;8.82;;;7.32;;
63778;SDS011;49923;55.970;37.516;2022-08-03T12:20:49;12.95;;;8.02;;
63778;SDS011;49923;55.970;37.516;2022-08-03T12:23:17;10.88;;;8.05;;
63778;SDS011;49923;55.970;37.516;2022-08-03T12:25:44;10.80;;;7.65;;
63778;SDS011;49923;55.970;37.516;2022-08-03T12:28:16;11.48;;;7.85;;
63778;SDS011;49923;55.970;37.516;2022-08-03T12:30:45;10.63;;;8.60;;
63778;SDS011;49923;55.970;37.516;2022-08-03T12:33:24;15.45;;;8.85;;
63778;SDS011;49923;55.970;37.516;2022-08-03T12:38:32;12.13;;;7.85;;
63778;SDS011;49923;55.970;37.516;2022-08-03T12:41:00;13.50;;;7.97;;
63778;SDS011;49923;55.970;37.516;2022-08-03T12:43:28;8.70;;;7.22;;
63778;SDS011;49923;55.970;37.516;2022-08-03T12:46:07;8.60;;;7.53;;
63778;SDS011;49923;55.970;37.516;2022-08-03T12:48:34;9.60;;;7.55;;
63778;SDS011;49923;55.970;37.516;2022-08-03T12:51:09;10.05;;;7.35;;
63778;SDS011;49923;55.970;37.516;2022-08-03T12:53:35;10.45;;;8.07;;
63778;SDS011;49923;55.970;37.516;2022-08-03T12:56:05;10.77;;;7.45;;
63778;SDS011;49923;55.970;37.516;2022-08-03T12:58:34;10.85;;;7.65;;
63778;SDS011;49923;55.970;37.516;2022-08-03T13:01:04;9.35;;;7.38;;
63778;SDS011;49923;55.970;37.516;2022-08-03T13:03:39;12.02;;;7.75;;
63778;SDS011;49923;55.970;37.516;2022-08-03T13:06:12;9.25;;;7.80;;
63778;SDS011;49923;55.970;37.516;2022-08-03T13:08:39;11.38;;;8.60;;
63778;SDS011;49923;55.970;37.516;2022-08-03T13:13:47;10.50;;;7.82;;
63778;SDS011;49923;55.970;37.516;2022-08-03T13:16:14;11.07;;;7.95;;
63778;SDS011;49923;55.970;37.516;2022-08-03T13:18:40;11.07;;;7.90;;
63778;SDS011;49923;55.970;37.516;2022-08-03T13:21:06;10.20;;;8.02;;
63778;SDS011;49923;55.970;37.516;2022-08-03T13:23:32;11.73;;;7.90;;
63778;SDS011;49923;55.970;37.516;2022-08-03T13:25:58;10.07;;;8.20;;
63778;SDS011;49923;55.970;37.516;2022-08-03T13:28:24;12.38;;;7.93;;
63778;SDS011;49923;55.970;37.516;2022-08-03T13:30:50;11.25;;;7.80;;
63778;SDS011;49923;55.970;37.516;2022-08-03T13:33:16;13.48;;;8.23;;
63778;SDS011;49923;55.970;37.516;2022-08-03T13:35:42;10.70;;;8.05;;
63778;SDS011;49923;55.970;37.516;2022-08-03T13:38:08;12.20;;;8.15;;
63778;SDS011;49923;55.970;37.516;2022-08-03T13:40:34;12.93;;;8.10;;
63778;SDS011;49923;55.970;37.516;2022-08-03T13:43:02;10.80;;;8.40;;
63778;SDS011;49923;55.970;37.516;2022-08-03T13:45:28;11.70;;;8.32;;
63778;SDS011;49923;55.970;37.516;2022-08-03T13:47:54;11.77;;;8.30;;
63778;SDS011;49923;55.970;37.516;2022-08-03T13:50:20;12.27;;;8.75;;
63778;SDS011;49923;55.970;37.516;2022-08-03T13:52:46;10.40;;;7.60;;
63778;SDS011;49923;55.970;37.516;2022-08-03T13:55:12;10.75;;;7.80;;
63778;SDS011;49923;55.970;37.516;2022-08-03T13:57:38;10.25;;;7.25;;
63778;SDS011;49923;55.970;37.516;2022-08-03T14:00:04;10.55;;;8.05;;
63778;SDS011;49923;55.970;37.516;2022-08-03T14:02:31;10.75;;;7.90;;
63778;SDS011;49923;55.970;37.516;2022-08-03T14:04:57;11.38;;;7.45;;
63778;SDS011;49923;55.970;37.516;2022-08-03T14:07:23;9.55;;;7.90;;
63778;SDS011;49923;55.970;37.516;2022-08-03T14:09:49;11.27;;;7.63;;
63778;SDS011;49923;55.970;37.516;2022-08-03T14:12:15;9.30;;;7.88;;
63778;SDS011;49923;55.970;37.516;2022-08-03T14:14:41;10.73;;;7.60;;
63778;SDS011;49923;55.970;37.516;2022-08-03T14:17:06;13.00;;;8.02;;
63778;SDS011;49923;55.970;37.516;2022-08-03T14:19:32;11.15;;;8.13;;
63778;SDS011;49923;55.970;37.516;2022-08-03T14:21:58;11.50;;;8.52;;
63778;SDS011;49923;55.970;37.516;2022-08-03T14:24:24;10.85;;;8.35;;
63778;SDS011;49923;55.970;37.516;2022-08-03T14:26:50;10.93;;;7.80;;
63778;SDS011;49923;55.970;37.516;2022-08-03T14:29:16;14.27;;;8.38;;
63778;SDS011;49923;55.970;37.516;2022-08-03T14:31:42;8.73;;;7.75;;
63778;SDS011;49923;55.970;37.516;2022-08-03T14:34:08;28.02;;;22.38;;
63778;SDS011;49923;55.970;37.516;2022-08-03T14:36:34;8.57;;;7.32;;
63778;SDS011;49923;55.970;37.516;2022-08-03T14:39:00;9.07;;;7.75;;
63778;SDS011;49923;55.970;37.516;2022-08-03T14:41:26;10.85;;;7.88;;
63778;SDS011;49923;55.970;37.516;2022-08-03T14:43:52;11.52;;;8.13;;
63778;SDS011;49923;55.970;37.516;2022-08-03T14:46:19;10.85;;;8.30;;
63778;SDS011;49923;55.970;37.516;2022-08-03T14:48:45;12.38;;;7.85;;
63778;SDS011;49923;55.970;37.516;2022-08-03T14:51:10;11.60;;;8.10;;
63778;SDS011;49923;55.970;37.516;2022-08-03T14:53:36;11.02;;;7.15;;
63778;SDS011;49923;55.970;37.516;2022-08-03T14:56:02;13.38;;;7.75;;
63778;SDS011;49923;55.970;37.516;2022-08-03T14:58:29;11.55;;;7.88;;
63778;SDS011;49923;55.970;37.516;2022-08-03T15:00:55;11.55;;;7.60;;
63778;SDS011;49923;55.970;37.516;2022-08-03T15:03:21;11.15;;;7.65;;
63778;SDS011;49923;55.970;37.516;2022-08-03T15:05:49;8.73;;;7.45;;
63778;SDS011;49923;55.970;37.516;2022-08-03T15:08:20;11.32;;;7.38;;
63778;SDS011;49923;55.970;37.516;2022-08-03T15:10:47;8.88;;;7.25;;
63778;SDS011;49923;55.970;37.516;2022-08-03T15:13:13;8.88;;;6.85;;